Time;durP1;ratioP1;P1;durP2;ratioP2;P2;SDS_P1;SDS_P2;PMS_P1;PMS_P2;Temp;Humidity;BMP_temperature;BMP_pressure;BME280_temperature;BME280_humidity;BME280_pressure;Samples;Min_cycle;Max_cycle;Signal;HPM_P1;HPM_P2
2022/04/11 00:01:36;;;;;;;0.38;0.32;;;4.30;73.80;;;;;;5113350;28;20043;-70
2022/04/11 00:04:01;;;;;;;0.88;0.50;;;4.30;73.80;;;;;;5113122;28;20067;-69
2022/04/11 00:06:27;;;;;;;0.20;0.20;;;4.30;73.90;;;;;;5113238;28;21263;-70
2022/04/11 00:08:53;;;;;;;0.68;0.30;;;4.20;73.80;;;;;;5113094;28;20040;-70
2022/04/11 00:11:18;;;;;;;0.40;0.40;;;4.30;73.90;;;;;;5113215;28;20169;-71
2022/04/11 00:13:44;;;;;;;0.40;0.35;;;4.30;74.00;;;;;;5113530;28;20487;-70
2022/04/11 00:16:10;;;;;;;0.20;0.20;;;4.20;73.90;;;;;;5113095;28;20035;-71
2022/04/11 00:18:35;;;;;;;0.35;0.22;;;4.20;73.90;;;;;;5095235;28;20052;-71
2022/04/11 00:21:02;;;;;;;0.28;0.25;;;4.30;74.00;;;;;;5112923;28;20126;-69
2022/04/11 00:23:28;;;;;;;0.45;0.40;;;4.30;74.00;;;;;;5112759;28;20481;-69
2022/04/11 00:25:53;;;;;;;0.40;0.40;;;4.20;74.00;;;;;;5112589;28;20043;-69
2022/04/11 00:28:19;;;;;;;0.40;0.40;;;4.30;74.00;;;;;;5113312;28;20122;-69
2022/04/11 00:30:45;;;;;;;0.28;0.28;;;4.20;73.90;;;;;;5112781;28;20062;-69
2022/04/11 00:33:10;;;;;;;0.60;0.40;;;4.20;74.00;;;;;;5112595;28;20126;-69
2022/04/11 00:35:36;;;;;;;0.40;0.30;;;4.30;74.10;;;;;;5112842;28;20066;-69
2022/04/11 00:38:02;;;;;;;0.70;0.40;;;4.30;74.20;;;;;;5093889;28;20086;-70
2022/04/11 00:40:28;;;;;;;0.45;0.22;;;4.20;74.10;;;;;;5113099;28;20039;-70
2022/04/11 00:42:54;;;;;;;0.40;0.40;;;4.20;74.20;;;;;;5112750;28;20503;-70
2022/04/11 00:45:19;;;;;;;0.43;0.28;;;4.20;74.20;;;;;;5112846;28;20043;-69
2022/04/11 00:47:45;;;;;;;0.68;0.40;;;4.20;74.20;;;;;;5112403;28;20040;-70
2022/04/11 00:50:12;;;;;;;1.13;0.50;;;4.20;74.20;;;;;;5112711;28;20040;-70
2022/04/11 00:52:40;;;;;;;0.90;0.50;;;4.20;74.20;;;;;;5112469;28;20042;-69
2022/04/11 00:55:07;;;;;;;0.38;0.38;;;4.20;74.30;;;;;;5112644;28;20039;-70
2022/04/11 00:57:33;;;;;;;0.35;0.32;;;4.30;74.40;;;;;;5112457;28;20492;-70
2022/04/11 01:00:00;;;;;;;0.43;0.35;;;4.20;74.30;;;;;;5112204;28;20043;-70
2022/04/11 01:02:26;;;;;;;0.30;0.30;;;4.30;74.40;;;;;;5115820;28;20044;-70
2022/04/11 01:04:52;;;;;;;0.40;0.38;;;4.30;74.30;;;;;;5116082;28;20067;-71
2022/04/11 01:07:19;;;;;;;0.32;0.30;;;4.20;74.30;;;;;;5116392;28;20078;-71
2022/04/11 01:09:45;;;;;;;0.32;0.20;;;4.30;74.30;;;;;;5115898;28;20068;-71
2022/04/11 01:12:13;;;;;;;0.70;0.22;;;4.30;74.30;;;;;;5115968;28;20040;-70
2022/04/11 01:14:39;;;;;;;0.35;0.35;;;4.30;74.40;;;;;;5116252;28;20131;-71
2022/04/11 01:17:04;;;;;;;0.55;0.32;;;4.30;74.40;;;;;;5115834;28;20083;-70
2022/04/11 01:19:30;;;;;;;0.40;0.30;;;4.30;74.40;;;;;;5116338;28;20047;-71
2022/04/11 01:21:56;;;;;;;0.40;0.30;;;4.30;74.40;;;;;;5115744;28;20032;-71
2022/04/11 01:24:22;;;;;;;0.70;0.38;;;4.30;74.40;;;;;;5115680;28;20053;-71
2022/04/11 01:26:49;;;;;;;1.05;0.38;;;4.30;74.50;;;;;;5115443;28;20043;-71
2022/04/11 01:29:18;;;;;;;1.50;0.30;;;4.20;74.40;;;;;;5116266;28;20044;-71
2022/04/11 01:31:44;;;;;;;0.55;0.40;;;4.30;74.50;;;;;;5116288;28;20043;-70
2022/04/11 01:34:09;;;;;;;0.40;0.30;;;4.30;75.20;;;;;;5116097;28;20046;-70
2022/04/11 01:36:35;;;;;;;0.60;0.30;;;4.30;74.60;;;;;;5116088;28;20441;-70
2022/04/11 01:39:01;;;;;;;0.45;0.30;;;4.30;74.60;;;;;;5116258;28;20069;-70
2022/04/11 01:41:27;;;;;;;0.47;0.30;;;4.30;74.60;;;;;;5097474;28;20044;-71
2022/04/11 01:43:53;;;;;;;0.30;0.30;;;4.30;74.60;;;;;;5115343;28;20126;-70
2022/04/11 01:46:19;;;;;;;0.55;0.35;;;4.40;74.70;;;;;;5095684;28;20036;-70
2022/04/11 01:48:45;;;;;;;0.43;0.38;;;4.30;74.70;;;;;;5097162;28;20040;-70
2022/04/11 01:51:12;;;;;;;0.50;0.30;;;4.30;74.60;;;;;;5079662;28;20401;-70
2022/04/11 01:53:38;;;;;;;0.52;0.30;;;4.30;74.60;;;;;;5097195;28;20039;-71
2022/04/11 01:56:04;;;;;;;0.30;0.30;;;4.30;74.60;;;;;;5115708;28;20042;-70
2022/04/11 01:58:30;;;;;;;0.63;0.30;;;4.30;74.70;;;;;;5115574;28;20036;-70
2022/04/11 02:00:58;;;;;;;0.20;0.20;;;4.30;74.70;;;;;;5115654;28;20047;-71
2022/04/11 02:03:25;;;;;;;0.40;0.40;;;4.30;74.80;;;;;;5115199;28;20039;-71
2022/04/11 02:05:50;;;;;;;0.10;0.10;;;4.30;74.90;;;;;;5115138;28;20044;-70
2022/04/11 02:08:16;;;;;;;0.20;0.20;;;4.20;74.80;;;;;;5079946;28;20481;-70
2022/04/11 02:10:42;;;;;;;0.30;0.30;;;4.30;74.90;;;;;;5115339;28;20028;-70
2022/04/11 02:13:08;;;;;;;0.30;0.30;;;4.30;74.90;;;;;;5114621;28;20449;-71
2022/04/11 02:15:34;;;;;;;0.73;0.32;;;4.30;74.90;;;;;;5115010;28;20081;-70
2022/04/11 02:18:00;;;;;;;0.98;0.40;;;4.30;75.00;;;;;;5115033;28;20105;-70
2022/04/11 02:20:26;;;;;;;0.30;0.30;;;4.30;75.00;;;;;;5096386;28;20488;-70
2022/04/11 02:22:55;;;;;;;0.30;0.30;;;4.30;75.10;;;;;;5115076;28;20047;-71
2022/04/11 02:25:24;;;;;;;0.22;0.22;;;4.20;75.00;;;;;;5096516;28;20032;-71
2022/04/11 02:27:50;;;;;;;0.52;0.40;;;4.40;75.10;;;;;;5114781;28;20039;-71
2022/04/11 02:30:18;;;;;;;0.22;0.22;;;4.30;75.10;;;;;;5096713;28;20031;-71
2022/04/11 02:32:45;;;;;;;0.30;0.30;;;4.30;75.10;;;;;;5114631;28;20055;-70
2022/04/11 02:35:11;;;;;;;0.22;0.20;;;4.20;75.10;;;;;;5115089;28;20048;-71
2022/04/11 02:37:38;;;;;;;0.75;0.40;;;4.30;75.20;;;;;;5114900;28;20035;-71
2022/04/11 02:40:05;;;;;;;0.20;0.20;;;4.20;75.10;;;;;;5114677;28;20485;-71
2022/04/11 02:42:31;;;;;;;0.20;0.20;;;4.20;75.10;;;;;;5114700;28;20059;-71
2022/04/11 02:44:57;;;;;;;0.95;0.30;;;4.20;75.20;;;;;;5114363;28;20039;-71
2022/04/11 02:47:23;;;;;;;0.60;0.40;;;4.20;75.30;;;;;;5114146;28;20046;-71
2022/04/11 02:49:49;;;;;;;0.30;0.30;;;4.20;75.40;;;;;;5094614;28;20448;-71
2022/04/11 02:52:15;;;;;;;0.40;0.30;;;4.20;75.40;;;;;;5114967;28;20079;-70
2022/04/11 02:54:41;;;;;;;0.68;0.32;;;4.20;75.50;;;;;;5114953;28;20130;-71
2022/04/11 02:57:08;;;;;;;0.65;0.40;;;4.10;75.50;;;;;;5114695;28;20067;-71
2022/04/11 02:59:35;;;;;;;0.20;0.20;;;4.10;75.50;;;;;;5096614;28;20382;-71
2022/04/11 03:02:02;;;;;;;0.52;0.40;;;4.10;75.60;;;;;;5114622;28;20096;-71
2022/04/11 03:04:28;;;;;;;0.35;0.35;;;4.10;75.70;;;;;;5114138;28;20035;-70
2022/04/11 03:06:55;;;;;;;0.77;0.40;;;4.10;75.70;;;;;;5114104;28;20059;-71
2022/04/11 03:09:21;;;;;;;0.30;0.30;;;4.10;75.80;;;;;;5114647;28;20389;-71
2022/04/11 03:11:47;;;;;;;0.30;0.30;;;4.00;75.80;;;;;;5114131;28;20047;-71
2022/04/11 03:14:12;;;;;;;0.50;0.40;;;4.10;75.90;;;;;;5113798;28;20032;-70
2022/04/11 03:16:40;;;;;;;0.32;0.30;;;4.00;75.90;;;;;;5114319;28;20393;-70
2022/04/11 03:19:06;;;;;;;0.30;0.30;;;4.00;75.90;;;;;;5114089;28;20488;-71
2022/04/11 03:21:32;;;;;;;0.47;0.28;;;4.00;76.00;;;;;;5114565;28;20039;-71
2022/04/11 03:23:58;;;;;;;0.50;0.32;;;3.90;75.80;;;;;;5094246;28;20036;-71
2022/04/11 03:26:24;;;;;;;0.15;0.15;;;4.10;76.00;;;;;;5114223;28;20510;-70
2022/04/11 03:28:50;;;;;;;0.30;0.30;;;4.00;75.90;;;;;;5096148;28;20389;-71
2022/04/11 03:31:16;;;;;;;0.20;0.20;;;4.00;75.90;;;;;;5114099;28;20078;-71
2022/04/11 03:33:41;;;;;;;0.30;0.30;;;3.90;75.90;;;;;;5113803;28;20035;-71
2022/04/11 03:36:07;;;;;;;0.30;0.30;;;4.00;76.00;;;;;;5095311;28;20050;-70
2022/04/11 03:38:33;;;;;;;0.22;0.22;;;4.00;76.00;;;;;;5095420;28;20472;-71
2022/04/11 03:40:58;;;;;;;0.38;0.38;;;4.00;76.00;;;;;;5113536;28;20405;-71
2022/04/11 03:43:24;;;;;;;0.40;0.30;;;3.90;76.00;;;;;;5095522;28;20047;-71
2022/04/11 03:45:51;;;;;;;0.50;0.30;;;3.90;76.10;;;;;;5077718;28;20048;-71
2022/04/11 03:48:17;;;;;;;0.35;0.30;;;3.90;76.20;;;;;;5077458;28;20386;-70
2022/04/11 03:50:43;;;;;;;0.38;0.38;;;3.80;76.20;;;;;;5093542;28;20058;-71
2022/04/11 03:53:08;;;;;;;0.47;0.40;;;3.90;76.30;;;;;;5113660;28;20039;-71
2022/04/11 03:55:34;;;;;;;0.30;0.30;;;3.80;76.30;;;;;;5094900;28;20134;-71
2022/04/11 03:58:00;;;;;;;0.25;0.25;;;3.80;76.30;;;;;;5113325;28;20127;-71
2022/04/11 04:00:26;;;;;;;0.32;0.30;;;3.70;76.40;;;;;;5078567;28;20119;-71
2022/04/11 04:02:52;;;;;;;0.38;0.38;;;3.70;76.50;;;;;;5113791;28;20043;-71
2022/04/11 04:05:18;;;;;;;0.45;0.40;;;3.70;76.50;;;;;;5095135;28;20050;-70
2022/04/11 04:07:43;;;;;;;0.82;0.40;;;3.70;76.60;;;;;;5095514;28;20050;-71
2022/04/11 04:10:09;;;;;;;0.40;0.40;;;3.70;76.60;;;;;;5094664;28;20047;-70
2022/04/11 04:12:35;;;;;;;0.43;0.35;;;3.70;76.60;;;;;;5113058;28;20044;-71
2022/04/11 04:15:02;;;;;;;0.40;0.40;;;3.60;76.60;;;;;;5113179;28;20043;-71
2022/04/11 04:17:27;;;;;;;0.25;0.20;;;3.60;76.70;;;;;;5113213;28;20044;-70
2022/04/11 04:19:54;;;;;;;0.38;0.38;;;3.60;76.80;;;;;;5095040;28;20989;-71
2022/04/11 04:22:20;;;;;;;1.35;0.32;;;3.60;76.80;;;;;;5113201;28;20424;-71
2022/04/11 04:24:46;;;;;;;0.20;0.20;;;3.50;76.80;;;;;;5113048;28;20061;-71
2022/04/11 04:27:12;;;;;;;0.30;0.30;;;3.60;76.80;;;;;;5113596;28;20474;-71
2022/04/11 04:29:37;;;;;;;0.50;0.45;;;3.60;76.80;;;;;;5113086;28;20035;-70
2022/04/11 04:32:03;;;;;;;0.45;0.30;;;3.50;76.70;;;;;;5094811;28;20054;-71
2022/04/11 04:34:30;;;;;;;0.70;0.50;;;3.50;76.70;;;;;;5113585;28;20073;-70
2022/04/11 04:36:58;;;;;;;0.22;0.22;;;3.50;76.80;;;;;;5112836;28;20071;-70
2022/04/11 04:39:24;;;;;;;0.30;0.30;;;3.50;76.80;;;;;;5112928;28;20456;-71
2022/04/11 04:41:50;;;;;;;0.50;0.40;;;3.60;76.80;;;;;;5113019;28;20071;-71
2022/04/11 04:44:16;;;;;;;0.55;0.40;;;3.60;76.80;;;;;;5094663;28;20063;-71
2022/04/11 04:46:41;;;;;;;0.40;0.40;;;3.60;76.80;;;;;;5112827;28;20476;-71
2022/04/11 04:49:07;;;;;;;0.32;0.30;;;3.70;76.90;;;;;;5077833;28;20043;-71
2022/04/11 04:51:33;;;;;;;0.45;0.40;;;3.60;76.80;;;;;;5112815;28;20036;-71
2022/04/11 04:53:59;;;;;;;0.25;0.25;;;3.60;76.80;;;;;;5112667;28;20032;-70
2022/04/11 04:56:24;;;;;;;0.40;0.40;;;3.60;76.70;;;;;;5113425;28;20089;-70
2022/04/11 04:58:51;;;;;;;0.32;0.32;;;3.60;76.70;;;;;;5093019;28;20044;-71
2022/04/11 05:01:17;;;;;;;0.45;0.38;;;3.60;76.70;;;;;;5113050;28;20067;-71
2022/04/11 05:03:43;;;;;;;0.40;0.30;;;3.60;76.70;;;;;;5112568;28;20071;-71
2022/04/11 05:06:09;;;;;;;0.35;0.30;;;3.60;76.70;;;;;;5112777;28;20125;-71
2022/04/11 05:08:34;;;;;;;0.32;0.30;;;3.60;76.70;;;;;;5112958;28;20046;-70
2022/04/11 05:11:00;;;;;;;0.30;0.30;;;3.60;76.70;;;;;;5112515;28;20044;-71
2022/04/11 05:13:27;;;;;;;0.43;0.43;;;3.60;76.80;;;;;;5113219;28;20066;-71
2022/04/11 05:15:53;;;;;;;0.70;0.50;;;3.60;76.80;;;;;;5112789;28;20464;-71
2022/04/11 05:18:18;;;;;;;0.55;0.47;;;3.60;76.80;;;;;;5075358;28;20047;-70
2022/04/11 05:20:44;;;;;;;0.52;0.40;;;3.60;76.70;;;;;;5112485;28;20594;-70
2022/04/11 05:23:10;;;;;;;0.40;0.30;;;3.70;76.70;;;;;;5112657;28;20080;-71
2022/04/11 05:25:36;;;;;;;0.50;0.40;;;3.70;76.70;;;;;;5092248;28;20040;-71
2022/04/11 05:28:02;;;;;;;0.85;0.43;;;3.80;76.70;;;;;;5112629;28;20040;-70
2022/04/11 05:30:33;;;;;;;0.95;0.75;;;3.70;76.60;;;;;;5094832;28;20122;-71
2022/04/11 05:33:00;;;;;;;;;;;3.70;76.50;;;;;;5112493;28;20040;-71
2022/04/11 05:35:25;;;;;;;0.63;0.50;;;3.80;76.50;;;;;;5112156;28;19954;-70
2022/04/11 05:37:51;;;;;;;0.43;0.40;;;3.80;76.30;;;;;;5112332;28;20422;-69
2022/04/11 05:40:17;;;;;;;0.40;0.35;;;3.90;76.30;;;;;;5112153;28;20489;-70
2022/04/11 05:42:42;;;;;;;1.15;0.60;;;4.00;76.20;;;;;;5092877;28;20051;-70
2022/04/11 05:45:08;;;;;;;1.00;0.70;;;4.00;76.20;;;;;;5112024;28;20126;-70
2022/04/11 05:47:34;;;;;;;0.60;0.40;;;4.00;76.10;;;;;;5112874;28;20485;-70
2022/04/11 05:50:00;;;;;;;0.90;0.40;;;4.10;76.10;;;;;;5115474;28;20068;-70
2022/04/11 05:52:26;;;;;;;0.30;0.30;;;4.10;76.00;;;;;;5115672;28;20051;-70
2022/04/11 05:54:51;;;;;;;2.03;0.45;;;4.20;76.10;;;;;;5115864;28;20488;-70
2022/04/11 05:57:17;;;;;;;0.50;0.50;;;4.20;76.00;;;;;;5115369;28;20043;-70
2022/04/11 05:59:43;;;;;;;0.70;0.50;;;4.30;76.00;;;;;;5115651;28;20098;-70
2022/04/11 06:02:10;;;;;;;0.50;0.50;;;4.30;76.00;;;;;;5116024;28;20431;-70
2022/04/11 06:04:37;;;;;;;0.30;0.30;;;4.30;75.90;;;;;;5115276;28;20039;-70
2022/04/11 06:07:04;;;;;;;0.40;0.32;;;4.30;76.60;;;;;;5115702;28;20451;-70
2022/04/11 06:09:30;;;;;;;0.50;0.40;;;4.40;76.00;;;;;;5115364;28;20066;-70
2022/04/11 06:11:56;;;;;;;0.40;0.40;;;4.40;76.00;;;;;;5115168;28;20118;-70
2022/04/11 06:14:22;;;;;;;0.30;0.30;;;4.30;75.90;;;;;;5115276;28;20123;-70
2022/04/11 06:16:47;;;;;;;0.30;0.30;;;4.40;76.00;;;;;;5115384;28;20110;-70
2022/04/11 06:19:13;;;;;;;0.43;0.32;;;4.40;76.00;;;;;;5097032;28;20050;-70
2022/04/11 06:21:39;;;;;;;0.40;0.40;;;4.40;76.00;;;;;;5114704;28;20043;-70
2022/04/11 06:24:05;;;;;;;0.57;0.52;;;4.50;76.10;;;;;;5115234;28;20035;-70
2022/04/11 06:26:31;;;;;;;1.10;0.52;;;4.50;76.00;;;;;;5115078;28;20516;-70
2022/04/11 06:28:57;;;;;;;0.50;0.50;;;4.50;76.00;;;;;;5114867;28;20035;-70
2022/04/11 06:31:22;;;;;;;0.40;0.40;;;4.60;76.00;;;;;;5096239;28;20064;-70
2022/04/11 06:33:48;;;;;;;0.90;0.70;;;4.70;76.00;;;;;;5115626;28;20036;-70
2022/04/11 06:36:14;;;;;;;0.60;0.50;;;4.80;76.00;;;;;;5115634;28;20480;-70
2022/04/11 06:38:40;;;;;;;0.73;0.50;;;4.90;75.70;;;;;;5079518;28;20059;-71
2022/04/11 06:41:05;;;;;;;0.75;0.60;;;5.00;75.60;;;;;;5114852;28;20044;-71
2022/04/11 06:43:31;;;;;;;1.80;0.80;;;5.10;75.40;;;;;;5115405;28;20074;-71
2022/04/11 06:45:57;;;;;;;1.02;0.70;;;5.20;75.30;;;;;;5079685;28;20075;-71
2022/04/11 06:48:22;;;;;;;0.47;0.47;;;5.30;75.10;;;;;;5079818;28;20035;-72
2022/04/11 06:50:50;;;;;;;1.00;0.88;;;5.40;74.90;;;;;;5114942;28;20036;-71
2022/04/11 06:53:16;;;;;;;0.77;0.70;;;5.50;74.80;;;;;;5078497;28;20164;-71
2022/04/11 06:55:44;;;;;;;0.45;0.43;;;5.50;74.90;;;;;;5079288;28;20071;-71
2022/04/11 06:58:10;;;;;;;0.82;0.70;;;5.70;74.60;;;;;;5079236;28;20070;-71
2022/04/11 07:00:41;;;;;;;1.05;0.70;;;5.80;74.40;;;;;;5079349;28;20508;-71
2022/04/11 07:03:07;;;;;;;0.80;0.70;;;5.90;74.30;;;;;;5114706;28;20042;-72
2022/04/11 07:05:34;;;;;;;0.95;0.80;;;6.00;74.20;;;;;;5094531;28;20036;-71
2022/04/11 07:08:00;;;;;;;1.70;0.93;;;6.10;74.20;;;;;;5095963;28;20046;-70
2022/04/11 07:10:26;;;;;;;1.58;0.90;;;6.20;74.10;;;;;;5114322;28;20489;-71
2022/04/11 07:12:51;;;;;;;0.60;0.60;;;6.30;73.90;;;;;;5078915;28;20043;-72
2022/04/11 07:15:17;;;;;;;1.13;0.77;;;6.50;73.90;;;;;;5114289;28;20035;-71
2022/04/11 07:17:44;;;;;;;0.85;0.70;;;6.50;73.80;;;;;;5114119;28;20161;-72
2022/04/11 07:20:10;;;;;;;1.15;0.50;;;6.50;73.70;;;;;;5114200;28;20039;-71
2022/04/11 07:22:36;;;;;;;1.30;0.70;;;6.70;73.70;;;;;;5114136;28;20040;-71
2022/04/11 07:25:03;;;;;;;1.40;0.70;;;6.70;73.50;;;;;;5094095;28;20058;-71
2022/04/11 07:27:28;;;;;;;1.27;0.82;;;6.80;73.40;;;;;;5113774;28;20040;-72
2022/04/11 07:29:54;;;;;;;0.50;0.50;;;7.00;73.40;;;;;;5113663;28;20036;-71
2022/04/11 07:32:20;;;;;;;1.67;0.70;;;7.10;73.30;;;;;;5077262;28;20071;-73
2022/04/11 07:34:45;;;;;;;1.35;0.85;;;7.20;73.20;;;;;;5113918;28;20024;-73
2022/04/11 07:37:11;;;;;;;0.52;0.47;;;7.20;73.10;;;;;;5096140;28;20493;-73
2022/04/11 07:39:37;;;;;;;0.65;0.60;;;7.40;73.10;;;;;;5114226;28;20051;-72
2022/04/11 07:42:03;;;;;;;1.05;0.70;;;7.50;73.00;;;;;;5095431;28;20485;-72
2022/04/11 07:44:29;;;;;;;2.05;0.88;;;7.60;72.80;;;;;;5114308;28;20128;-72
2022/04/11 07:46:55;;;;;;;0.70;0.70;;;7.70;72.70;;;;;;5095879;28;20050;-72
2022/04/11 07:49:21;;;;;;;1.58;0.80;;;7.80;72.60;;;;;;5095525;28;20040;-72
2022/04/11 07:51:46;;;;;;;1.05;0.82;;;8.00;73.10;;;;;;5114191;28;20063;-72
2022/04/11 07:54:12;;;;;;;2.47;0.90;;;8.10;72.30;;;;;;5114311;28;20374;-72
2022/04/11 07:56:38;;;;;;;0.70;0.70;;;8.20;72.20;;;;;;5114161;28;20448;-72
2022/04/11 07:59:03;;;;;;;1.55;1.08;;;8.30;72.10;;;;;;5078860;28;20110;-72
2022/04/11 08:01:29;;;;;;;0.40;0.40;;;8.50;72.00;;;;;;5113848;28;20032;-72
2022/04/11 08:03:55;;;;;;;0.70;0.60;;;8.70;71.80;;;;;;5095731;28;20043;-72
2022/04/11 08:06:21;;;;;;;2.08;0.82;;;8.70;71.60;;;;;;5113527;28;20044;-70
2022/04/11 08:08:47;;;;;;;1.02;0.40;;;9.00;71.50;;;;;;5114003;28;20043;-70
2022/04/11 08:11:16;;;;;;;0.55;0.55;;;9.10;71.30;;;;;;5113160;28;20039;-70
2022/04/11 08:13:42;;;;;;;1.08;0.80;;;9.30;71.20;;;;;;5096005;28;20075;-71
2022/04/11 08:16:08;;;;;;;1.00;0.70;;;9.50;71.20;;;;;;5113467;28;20044;-71
2022/04/11 08:18:34;;;;;;;1.40;1.08;;;9.60;70.90;;;;;;5113388;28;20044;-71
2022/04/11 08:21:02;;;;;;;1.60;0.90;;;9.80;70.70;;;;;;5113316;28;20042;-70
2022/04/11 08:23:28;;;;;;;0.70;0.70;;;10.00;70.60;;;;;;5095620;28;20039;-70
2022/04/11 08:25:54;;;;;;;1.00;0.85;;;10.20;70.60;;;;;;5113317;28;20062;-70
2022/04/11 08:28:20;;;;;;;0.70;0.70;;;10.30;70.40;;;;;;5094440;28;20105;-70
2022/04/11 08:30:47;;;;;;;1.17;0.80;;;10.50;70.30;;;;;;5112966;28;20040;-70
2022/04/11 08:33:13;;;;;;;1.50;0.90;;;10.60;70.20;;;;;;5113170;28;20373;-70
2022/04/11 08:35:39;;;;;;;1.17;0.93;;;10.70;70.30;;;;;;5113465;28;20035;-71
2022/04/11 08:38:05;;;;;;;1.02;0.80;;;11.00;70.30;;;;;;5112951;28;20039;-71
2022/04/11 08:40:31;;;;;;;1.00;0.90;;;11.10;70.10;;;;;;5094467;28;20122;-72
2022/04/11 08:42:59;;;;;;;0.80;0.80;;;11.20;69.90;;;;;;5093009;28;20031;-71
2022/04/11 08:45:28;;;;;;;0.93;0.60;;;11.40;69.80;;;;;;5113095;28;20035;-71
2022/04/11 08:47:54;;;;;;;0.75;0.60;;;11.50;69.80;;;;;;5094502;28;20050;-71
2022/04/11 08:50:20;;;;;;;0.98;0.80;;;11.60;69.80;;;;;;5093675;28;20474;-71
2022/04/11 08:52:49;;;;;;;1.38;0.68;;;11.70;70.40;;;;;;5094475;28;20043;-71
2022/04/11 08:55:15;;;;;;;3.50;0.98;;;11.90;69.60;;;;;;5112599;28;20062;-70
2022/04/11 08:57:41;;;;;;;0.70;0.68;;;11.90;69.50;;;;;;5077824;28;20835;-71
2022/04/11 09:00:12;;;;;;;0.70;0.70;;;12.00;69.50;;;;;;5112632;28;20054;-71
2022/04/11 09:02:39;;;;;;;0.90;0.70;;;12.20;69.60;;;;;;5077935;28;20047;-71
2022/04/11 09:05:06;;;;;;;0.93;0.82;;;12.30;69.50;;;;;;5077747;28;20174;-72
2022/04/11 09:07:53;;;;;;;0.80;0.47;;;12.50;69.50;;;;;;5112888;28;20039;-72
2022/04/11 09:10:21;;;;;;;0.90;0.75;;;12.60;69.30;;;;;;5112885;28;20047;-72
2022/04/11 09:12:51;;;;;;;1.70;0.77;;;12.80;69.20;;;;;;5092928;28;20074;-72
2022/04/11 09:15:17;;;;;;;0.77;0.77;;;12.90;69.00;;;;;;5076610;28;20056;-72
2022/04/11 09:17:44;;;;;;;1.02;0.80;;;13.10;68.90;;;;;;5092166;28;20043;-71
2022/04/11 09:20:14;;;;;;;0.80;0.70;;;13.10;68.70;;;;;;5093726;28;20071;-72
2022/04/11 09:22:40;;;;;;;0.88;0.77;;;13.30;68.70;;;;;;5095718;28;20052;-71
2022/04/11 09:25:08;;;;;;;0.88;0.80;;;13.30;68.60;;;;;;5116020;28;20105;-71
2022/04/11 09:27:34;;;;;;;0.85;0.80;;;13.40;68.40;;;;;;5096510;28;20082;-71
2022/04/11 09:30:00;;;;;;;0.95;0.70;;;13.50;68.40;;;;;;5097645;28;20036;-72
2022/04/11 09:32:26;;;;;;;0.63;0.63;;;13.70;68.40;;;;;;5080944;28;20058;-72
2022/04/11 09:34:54;;;;;;;1.88;0.90;;;13.60;68.20;;;;;;5097262;28;20097;-72
2022/04/11 09:37:20;;;;;;;1.90;0.60;;;13.70;68.10;;;;;;5063312;28;20040;-72
2022/04/11 09:39:54;;;;;;;1.05;0.85;;;13.70;68.00;;;;;;5115634;28;20040;-72
2022/04/11 09:42:35;;;;;;;0.63;0.63;;;13.80;68.00;;;;;;5116004;28;20123;-72
2022/04/11 09:45:00;;;;;;;0.65;0.63;;;13.80;67.70;;;;;;5116163;28;20043;-72
2022/04/11 09:47:26;;;;;;;0.82;0.70;;;13.90;67.90;;;;;;5097824;28;20055;-72
2022/04/11 09:49:53;;;;;;;0.80;0.60;;;14.00;67.80;;;;;;5115482;28;20039;-71
2022/04/11 09:52:19;;;;;;;0.70;0.70;;;14.10;67.70;;;;;;5115374;28;20039;-71
2022/04/11 09:54:50;;;;;;;1.90;0.80;;;14.20;67.60;;;;;;5115721;28;20523;-70
2022/04/11 09:57:17;;;;;;;1.10;0.70;;;14.20;67.40;;;;;;5115870;28;20031;-70
2022/04/11 09:59:45;;;;;;;0.30;0.30;;;14.20;67.30;;;;;;5096370;28;20052;-70
2022/04/11 10:02:12;;;;;;;1.38;0.77;;;14.30;67.40;;;;;;5115399;28;20090;-70
2022/04/11 10:04:39;;;;;;;0.80;0.63;;;14.30;67.30;;;;;;5115179;28;20093;-70
2022/04/11 10:07:09;;;;;;;0.50;0.40;;;14.30;67.30;;;;;;5115781;28;20036;-72
2022/04/11 10:09:39;;;;;;;0.43;0.40;;;14.40;67.30;;;;;;5112165;28;20043;-71
2022/04/11 10:12:05;;;;;;;0.85;0.57;;;14.50;67.20;;;;;;5097669;28;20035;-72
2022/04/11 10:14:31;;;;;;;0.80;0.60;;;14.50;67.10;;;;;;5097482;28;20366;-70
2022/04/11 10:17:01;;;;;;;0.63;0.50;;;14.50;66.90;;;;;;5080078;28;20032;-71
2022/04/11 10:19:31;;;;;;;0.40;0.40;;;14.50;66.90;;;;;;5115185;28;20506;-71
2022/04/11 10:22:14;;;;;;;0.70;0.70;;;14.60;66.90;;;;;;5080452;28;20043;-71
2022/04/11 10:24:48;;;;;;;1.02;0.50;;;14.50;66.70;;;;;;5115523;28;20047;-71
2022/04/11 10:27:20;;;;;;;0.60;0.60;;;14.50;66.70;;;;;;5097732;28;20040;-71
2022/04/11 10:29:48;;;;;;;1.00;0.73;;;14.50;66.70;;;;;;5114817;28;20084;-71
2022/04/11 10:32:18;;;;;;;0.63;0.63;;;14.40;66.70;;;;;;5115347;28;20137;-72
2022/04/11 10:34:53;;;;;;;0.60;0.60;;;14.40;66.50;;;;;;5062770;28;20176;-72
2022/04/11 10:37:21;;;;;;;1.73;0.63;;;14.50;66.50;;;;;;5097259;28;20035;-72
2022/04/11 10:39:48;;;;;;;0.77;0.50;;;14.50;66.30;;;;;;5095915;28;20398;-72
2022/04/11 10:42:15;;;;;;;1.27;0.60;;;14.50;66.30;;;;;;5096576;28;20140;-72
2022/04/11 10:44:59;;;;;;;0.82;0.70;;;14.50;66.20;;;;;;5115121;28;20039;-72
2022/04/11 10:47:30;;;;;;;1.20;0.60;;;14.50;66.10;;;;;;5115245;28;20043;-72
2022/04/11 10:50:19;;;;;;;0.93;0.60;;;14.50;65.90;;;;;;5093252;28;20559;-71
2022/04/11 10:52:50;;;;;;;0.50;0.50;;;14.50;65.70;;;;;;5099829;28;20101;-72
2022/04/11 10:55:19;;;;;;;0.82;0.55;;;14.50;65.70;;;;;;5114507;28;20553;-72
2022/04/11 10:57:46;;;;;;;0.98;0.80;;;14.60;65.60;;;;;;5114422;28;20546;-70
2022/04/11 11:00:23;;;;;;;1.63;0.70;;;14.60;65.40;;;;;;5114508;28;20036;-71
2022/04/11 11:03:10;;;;;;;1.50;0.60;;;14.60;65.20;;;;;;5079258;28;20040;-70
2022/04/11 11:05:50;;;;;;;0.40;0.40;;;14.70;65.00;;;;;;5098346;28;20109;-70
2022/04/11 11:08:25;;;;;;;0.40;0.40;;;14.70;64.80;;;;;;5096788;28;20078;-69
2022/04/11 11:10:55;;;;;;;0.45;0.43;;;14.70;64.70;;;;;;5114819;28;20071;-70
2022/04/11 11:13:42;;;;;;;0.52;0.52;;;14.80;64.60;;;;;;5079032;28;20063;-71
2022/04/11 11:16:33;;;;;;;0.82;0.55;;;14.80;64.20;;;;;;5095581;28;20043;-70
2022/04/11 11:19:17;;;;;;;0.32;0.30;;;14.90;64.10;;;;;;5083043;28;20040;-70
2022/04/11 11:21:59;;;;;;;0.63;0.40;;;15.00;64.00;;;;;;5095825;28;20073;-71
2022/04/11 11:24:25;;;;;;;2.17;0.70;;;15.00;63.70;;;;;;5062270;28;20046;-72
2022/04/11 11:26:54;;;;;;;0.85;0.50;;;15.00;63.70;;;;;;5096099;28;20043;-70
2022/04/11 11:29:23;;;;;;;1.58;0.80;;;15.00;63.50;;;;;;5114654;28;20039;-71
2022/04/11 11:31:51;;;;;;;1.13;0.60;;;15.10;63.40;;;;;;5114365;28;20035;-72
2022/04/11 11:34:20;;;;;;;0.73;0.57;;;15.10;63.20;;;;;;5114602;28;20526;-70
2022/04/11 11:36:46;;;;;;;1.10;0.70;;;15.20;63.20;;;;;;5096382;28;20048;-71
2022/04/11 11:39:16;;;;;;;0.70;0.68;;;15.20;63.10;;;;;;5114006;28;20130;-70
2022/04/11 11:41:43;;;;;;;1.25;0.95;;;15.20;63.00;;;;;;5095558;28;20092;-70
2022/04/11 11:44:09;;;;;;;2.20;1.08;;;15.20;62.80;;;;;;5096017;28;20055;-70
2022/04/11 11:46:49;;;;;;;0.75;0.75;;;15.20;62.70;;;;;;5112966;28;20040;-70
2022/04/11 11:49:17;;;;;;;1.17;0.98;;;15.20;62.60;;;;;;5109841;28;20035;-70
2022/04/11 11:51:43;;;;;;;1.17;0.75;;;15.20;62.60;;;;;;5113673;28;20035;-71
2022/04/11 11:54:08;;;;;;;0.65;0.60;;;15.30;62.60;;;;;;5114244;28;20176;-70
2022/04/11 11:56:43;;;;;;;1.48;0.80;;;15.30;62.60;;;;;;5095534;28;20036;-71
2022/04/11 11:59:08;;;;;;;1.67;0.70;;;15.40;62.40;;;;;;5114119;28;20046;-71
2022/04/11 12:01:34;;;;;;;1.33;0.75;;;15.40;62.30;;;;;;5114222;28;20043;-71
2022/04/11 12:06:43;;;;;;;0.98;0.70;;;15.60;62.10;;;;;;5097846;28;20039;-70
2022/04/11 12:09:09;;;;;;;0.60;0.60;;;15.70;61.80;;;;;;5113342;28;20103;-71
2022/04/11 12:11:35;;;;;;;0.55;0.52;;;15.80;61.60;;;;;;5076858;28;20127;-71
2022/04/11 12:14:05;;;;;;;0.65;0.65;;;15.90;61.30;;;;;;5113905;28;20036;-69
2022/04/11 12:16:32;;;;;;;0.93;0.70;;;15.90;61.00;;;;;;5095437;28;20110;-71
2022/04/11 12:19:00;;;;;;;0.63;0.63;;;15.90;60.90;;;;;;5095661;28;20052;-70
2022/04/11 12:21:41;;;;;;;0.70;0.70;;;15.90;60.80;;;;;;5113181;28;20035;-68
2022/04/11 12:24:09;;;;;;;0.90;0.70;;;16.10;60.80;;;;;;5094830;28;20067;-69
2022/04/11 12:26:37;;;;;;;0.50;0.50;;;16.10;60.70;;;;;;5078277;28;20447;-69
2022/04/11 12:29:15;;;;;;;1.90;1.00;;;16.20;60.70;;;;;;5095162;28;20071;-70
2022/04/11 12:32:11;;;;;;;3.60;1.10;;;16.20;60.40;;;;;;5095263;28;20504;-70
2022/04/11 12:34:40;;;;;;;2.60;0.70;;;16.30;60.20;;;;;;5113272;28;20057;-70
2022/04/11 12:37:07;;;;;;;1.17;0.70;;;16.20;60.20;;;;;;5094802;28;20039;-70
2022/04/11 12:39:51;;;;;;;1.77;1.00;;;16.20;60.40;;;;;;5112686;28;20040;-70
2022/04/11 12:42:19;;;;;;;2.63;1.10;;;16.20;60.10;;;;;;5112717;28;20105;-70
2022/04/11 12:44:46;;;;;;;1.13;0.90;;;16.10;60.00;;;;;;5113100;28;21923;-70
2022/04/11 12:47:12;;;;;;;1.40;0.90;;;16.20;60.60;;;;;;5112492;28;20122;-72
2022/04/11 12:49:47;;;;;;;1.38;0.93;;;16.20;59.90;;;;;;5094726;28;20489;-72
2022/04/11 12:52:15;;;;;;;1.25;0.80;;;16.10;59.70;;;;;;5094450;28;20043;-72
2022/04/11 12:54:47;;;;;;;0.93;0.70;;;16.20;59.80;;;;;;5112703;28;20039;-73
2022/04/11 12:57:21;;;;;;;0.88;0.75;;;16.20;59.50;;;;;;5112032;28;20047;-71